»·PEaware :: AAL1256 KPHX-KSAN

AAL1256 :: KPHX-KSAN

FLIGHT INFORMATION

Flight Status: Arrived
Operator:
American Airlines
More flights by this operator :: More flights under this callsign
Pilot: Alex S. (7186)
Aircraft: AIRBUS A320
(A320)
More flights by this aircraft type
Origin: KPHX Phoenix Sky Harbor Intl
United States
Destination: KSAN San Diego Intl-Lindbergh
United States
More flights between these airports :: More routes between these airports
Route: +JUDTH6 MOHAK J2 HOGGZ LUCKI1
File this flight plan on PilotEdge
Remarks: PBN / A1B1C1D1O1S1 DOF / 180422 REG / N500SA EET / KZLA0018 OPR / AAL PER / C RMK / TCAS SIMBRIEF
Altitude:
(Current/Filed)
26,000ft
Speed:
(Current/Filed)
455kts
Departed: 21-Apr-18 07:48 PM
Arrived: 21-Apr-18 08:33 PM
Distance/Time
Traveled:
253nm/0:45
Distance/Time
To Go:
Arrived

Flight Plot

Page will automatically refresh every two minutes.

Flight plan parsing failed; only flown route is shown


Map Options




Map Legend


Flown Route
Filed Route
Departure Airport
Arrival Airport
Navaid (VOR, NDB)
Fix

Horizontal Profiles

Position Reports

Time Latitude Longitude Heading Altitude Ground
Speed
21-Apr-18 19:21 33.437547 -111.998793 271 1118ft 0kts
21-Apr-18 19:22 33.437547 -111.998793 271 1118ft 0kts
21-Apr-18 19:23 33.437547 -111.998793 271 1118ft 0kts
21-Apr-18 19:24 33.437547 -111.998793 271 1118ft 0kts
21-Apr-18 19:25 33.437547 -111.998793 271 1118ft 0kts
21-Apr-18 19:26 33.437547 -111.998793 271 1118ft 0kts
21-Apr-18 19:27 33.437547 -111.998793 271 1118ft 0kts
21-Apr-18 19:28 33.437547 -111.998793 271 1118ft 0kts
21-Apr-18 19:29 33.437547 -111.998793 271 1118ft 0kts
21-Apr-18 19:30 33.437547 -111.998793 271 1118ft 0kts
21-Apr-18 19:31 33.437547 -111.998793 271 1118ft 0kts
21-Apr-18 19:32 33.437547 -111.998793 271 1118ft 0kts
21-Apr-18 19:33 33.437547 -111.998793 271 1118ft 0kts
21-Apr-18 19:34 33.437547 -111.998793 271 1118ft 0kts
21-Apr-18 19:35 33.437547 -111.998793 271 1118ft 0kts
21-Apr-18 19:36 33.437547 -111.998793 271 1118ft 0kts
21-Apr-18 19:37 33.437547 -111.998793 271 1118ft 0kts
21-Apr-18 19:38 33.437547 -111.998793 271 1118ft 0kts
21-Apr-18 19:39 33.437542 -111.998418 273 1118ft 2kts
21-Apr-18 19:40 33.437160 -111.998048 358 1118ft 0kts
21-Apr-18 19:41 33.437160 -111.998048 358 1118ft 0kts
21-Apr-18 19:42 33.438308 -111.998133 348 1118ft 0kts
21-Apr-18 19:43 33.438835 -111.998260 349 1118ft 12kts
21-Apr-18 19:44 33.439734 -111.994632 90 1118ft 17kts
21-Apr-18 19:45 33.439789 -111.992378 64 1118ft 0kts
21-Apr-18 19:46 33.440806 -111.993235 266 1118ft 11kts
21-Apr-18 19:47 33.439421 -112.033656 250 2389ft 198kts
21-Apr-18 19:48 33.405463 -112.096003 237 5582ft 271kts
21-Apr-18 19:49 33.342743 -112.145798 185 9341ft 307kts
21-Apr-18 19:50 33.260560 -112.189628 220 11756ft 370kts
21-Apr-18 19:51 33.195269 -112.289276 236 14556ft 393kts
21-Apr-18 19:52 33.129707 -112.395243 237 17490ft 403kts
21-Apr-18 19:53 33.065195 -112.505482 252 19955ft 409kts
21-Apr-18 19:54 33.040110 -112.637591 262 22318ft 411kts
21-Apr-18 19:55 33.016541 -112.769173 261 24471ft 416kts
21-Apr-18 19:56 32.992311 -112.903268 261 25992ft 415kts
21-Apr-18 19:57 32.966683 -113.044121 252 26001ft 461kts
21-Apr-18 19:58 32.938802 -113.196576 252 26006ft 474kts
21-Apr-18 19:59 32.910629 -113.349208 252 26006ft 474kts
21-Apr-18 20:00 32.882812 -113.498931 252 26009ft 474kts
21-Apr-18 20:01 32.854316 -113.651258 251 26012ft 474kts
21-Apr-18 20:02 32.826036 -113.801354 251 26009ft 473kts
21-Apr-18 20:03 32.797064 -113.954047 251 26001ft 473kts
21-Apr-18 20:04 32.776458 -114.108791 267 26006ft 487kts
21-Apr-18 20:05 32.782903 -114.268876 267 26010ft 485kts
21-Apr-18 20:06 32.798973 -114.428317 283 26000ft 498kts
21-Apr-18 20:07 32.836415 -114.563982 283 26007ft 496kts
21-Apr-18 20:08 32.873812 -114.704902 277 25998ft 492kts
21-Apr-18 20:09 32.876318 -114.864697 263 26008ft 482kts
21-Apr-18 20:10 32.872774 -115.019317 263 25989ft 480kts
21-Apr-18 20:11 32.869013 -115.176236 264 26028ft 474kts
21-Apr-18 20:12 32.864656 -115.331744 261 25975ft 468kts
21-Apr-18 20:13 32.844922 -115.483346 256 25943ft 464kts
21-Apr-18 20:14 32.820818 -115.631685 255 24143ft 449kts
21-Apr-18 20:15 32.799451 -115.761656 255 22327ft 422kts
21-Apr-18 20:16 32.781968 -115.891344 262 20331ft 414kts
21-Apr-18 20:17 32.771990 -116.024858 263 17766ft 402kts
21-Apr-18 20:18 32.762128 -116.154600 264 15226ft 392kts
21-Apr-18 20:19 32.752607 -116.278074 264 13756ft 353kts
21-Apr-18 20:20 32.743934 -116.389795 265 12071ft 334kts
21-Apr-18 20:21 32.735587 -116.496459 265 10659ft 309kts
21-Apr-18 20:22 32.726660 -116.594065 263 9610ft 296kts
21-Apr-18 20:23 32.718463 -116.676335 264 8236ft 291kts
21-Apr-18 20:25 32.708700 -116.802282 265 6289ft 279kts
21-Apr-18 20:26 32.702488 -116.834099 249 6064ft 266kts
21-Apr-18 20:27 32.676531 -116.953462 287 4959ft 230kts
21-Apr-18 20:28 32.695001 -117.030259 287 4402ft 174kts
21-Apr-18 20:29 32.707173 -117.080559 287 3544ft 152kts
21-Apr-18 20:30 32.718363 -117.126862 286 2345ft 150kts
21-Apr-18 20:31 32.720282 -117.134766 286 2231ft 150kts
21-Apr-18 20:32 32.745740 -117.236479 0 2526ft 0kts
21-Apr-18 20:33 32.750193 -117.254220 287 2519ft 197kts
21-Apr-18 20:35 32.776882 -117.361333 287 2512ft 205kts
21-Apr-18 20:36 32.781918 -117.476596 248 2506ft 208kts
21-Apr-18 20:37 32.739846 -117.524258 227 2508ft 210kts
21-Apr-18 20:38 32.760716 -117.567826 14 2513ft 207kts
21-Apr-18 20:39 32.780233 -117.507945 78 2508ft 212kts
21-Apr-18 20:40 32.797234 -117.436510 72 4345ft 225kts
21-Apr-18 20:41 32.814774 -117.362322 72 5008ft 246kts
21-Apr-18 20:42 32.829825 -117.298964 72 5011ft 248kts
21-Apr-18 20:43 32.839030 -117.219987 101 5015ft 253kts
21-Apr-18 20:44 32.822110 -117.139822 102 5017ft 252kts
21-Apr-18 20:45 32.805728 -117.061318 102 5018ft 251kts
21-Apr-18 20:46 32.789635 -116.981272 102 5017ft 250kts

Navigation Log

Ident Type
Flight plan parsing failed, navigation log unavailable